Swanton, Nebraska
Current Conditions -  °F | °C
As of 6:35 PM on Tuesday 25 Nov 2014 (Local Time) from KBIE Reporting Station
Overcast Overcast  
Wind Chill: 37°   Ceiling: 9000
Heat Index: 42°   Visibility: 10mi
Dew Point: 26°   Wind: 10mph
Humidity: 53%   Direction: 170°S
Pressure: 29.93"   Gusts: NA
Location:  40.38°N, 97.08°W
Report Text: KBIE 260035Z AUTO 17009KT 10SM SCT070 OVC090 06/M03 A2993 RMK AO2 T00581032
Loading
Personal Weather Stations






























Interactive Weather Map New forecast layout! Learn more

10-Day Weather Forecast

Advertisements
Track Severe Weather on mobile